createdAt,value
2018-11-21T00:01:32.543Z,57.09
2018-11-21T00:03:38.997Z,57.09
2018-11-21T00:05:45.075Z,57.15
2018-11-21T00:07:51.187Z,57.12
2018-11-21T00:09:57.231Z,57.13
2018-11-21T00:12:03.502Z,57.13
2018-11-21T00:14:10.784Z,57.15
2018-11-21T00:16:17.274Z,57.20
2018-11-21T00:18:23.357Z,57.24
2018-11-21T00:20:29.431Z,57.30
2018-11-21T00:22:35.951Z,57.45
2018-11-21T00:24:42.010Z,57.52
2018-11-21T00:26:48.170Z,57.54
2018-11-21T00:28:54.268Z,57.56
2018-11-21T00:31:00.702Z,57.56
2018-11-21T00:33:06.773Z,57.55
2018-11-21T00:35:12.838Z,57.54
2018-11-21T00:37:19.846Z,57.53
2018-11-21T00:39:25.891Z,57.56
2018-11-21T00:41:32.302Z,57.56
2018-11-21T00:43:38.312Z,57.59
2018-11-21T00:45:44.347Z,57.57
2018-11-21T00:47:50.648Z,57.59
2018-11-21T00:49:56.731Z,57.61
2018-11-21T00:52:03.124Z,57.63
2018-11-21T00:54:09.561Z,57.63
2018-11-21T00:56:15.962Z,57.64
2018-11-21T00:58:22.377Z,57.61
2018-11-21T01:00:28.547Z,57.57
2018-11-21T01:02:35.607Z,57.54
2018-11-21T01:04:40.065Z,57.52
2018-11-21T01:06:46.120Z,57.52
2018-11-21T01:08:52.188Z,57.54
2018-11-21T01:10:58.250Z,57.54
2018-11-21T01:13:04.380Z,57.57
2018-11-21T01:15:11.165Z,57.53
2018-11-21T01:17:17.237Z,57.49
2018-11-21T01:19:23.424Z,57.50
2018-11-21T01:21:29.568Z,57.46
2018-11-21T01:23:35.620Z,57.44
2018-11-21T01:25:41.656Z,57.40
2018-11-21T01:27:47.791Z,57.35
2018-11-21T01:29:53.840Z,57.33
2018-11-21T01:31:59.902Z,57.34
2018-11-21T01:34:06.102Z,57.35
2018-11-21T01:36:12.477Z,57.36
2018-11-21T01:38:18.758Z,57.36
2018-11-21T01:40:24.815Z,57.36
2018-11-21T01:42:30.875Z,57.37
2018-11-21T01:44:36.907Z,57.37
2018-11-21T01:46:43.332Z,57.34
2018-11-21T01:48:49.527Z,57.32
2018-11-21T01:50:55.547Z,57.29
2018-11-21T01:53:01.620Z,57.27
2018-11-21T01:55:08.133Z,57.25
2018-11-21T01:57:14.172Z,57.26
2018-11-21T01:59:20.328Z,57.24
2018-11-21T02:01:26.365Z,57.24
2018-11-21T02:03:32.498Z,57.27
2018-11-21T02:05:38.551Z,57.32
2018-11-21T02:07:44.684Z,57.35
2018-11-21T02:09:50.765Z,57.39
2018-11-21T02:11:56.790Z,57.44
2018-11-21T02:14:02.840Z,57.45
2018-11-21T02:16:09.316Z,57.55
2018-11-21T02:18:15.437Z,57.59
2018-11-21T02:22:30.286Z,57.74
2018-11-21T02:24:36.319Z,57.73
2018-11-21T02:26:42.352Z,57.78
2018-11-21T02:28:48.659Z,57.77
2018-11-21T02:30:54.820Z,57.76
2018-11-21T02:33:01.307Z,57.76
2018-11-21T02:35:08.849Z,57.75
2018-11-21T02:37:15.007Z,57.72
2018-11-21T02:39:21.074Z,57.67
2018-11-21T02:41:27.146Z,57.71
2018-11-21T02:43:33.177Z,57.67
2018-11-21T02:45:39.281Z,57.64
2018-11-21T02:47:45.299Z,57.62
2018-11-21T02:49:51.817Z,57.64
2018-11-21T02:51:57.869Z,57.64
2018-11-21T02:54:03.974Z,57.65
2018-11-21T02:56:10.834Z,57.64
2018-11-21T02:58:16.880Z,57.60
2018-11-21T03:00:25.623Z,57.55
2018-11-21T03:02:31.717Z,57.49
2018-11-21T03:04:37.753Z,57.47
2018-11-21T03:06:44.580Z,57.43
2018-11-21T03:08:50.619Z,57.42
2018-11-21T03:10:56.824Z,57.33
2018-11-21T03:13:02.887Z,57.37
2018-11-21T03:15:08.962Z,57.38
2018-11-21T03:17:15.035Z,57.38
2018-11-21T03:19:21.103Z,57.43
2018-11-21T03:21:27.170Z,57.44
2018-11-21T03:23:33.259Z,57.49
2018-11-21T03:25:39.297Z,57.55
2018-11-21T03:27:45.844Z,57.58
2018-11-21T03:29:51.871Z,57.66
2018-11-21T03:31:57.943Z,57.71
2018-11-21T03:34:04.108Z,57.76
2018-11-21T03:36:10.150Z,57.79
2018-11-21T03:38:16.331Z,57.83
2018-11-21T03:40:22.363Z,57.86
2018-11-21T03:42:28.722Z,57.88
2018-11-21T03:44:35.001Z,57.89
2018-11-21T03:46:41.035Z,57.90
2018-11-21T03:48:47.755Z,57.88
2018-11-21T03:50:53.803Z,57.89
2018-11-21T03:52:59.930Z,57.89
2018-11-21T03:55:06.861Z,57.88
2018-11-21T03:57:12.932Z,57.89
2018-11-21T03:59:19.213Z,57.90
2018-11-21T04:01:25.436Z,57.90
2018-11-21T04:03:31.471Z,57.95
2018-11-21T04:05:38.218Z,57.97
2018-11-21T04:07:44.251Z,58.01
2018-11-21T04:09:50.332Z,57.98
2018-11-21T04:11:56.352Z,57.97
2018-11-21T04:14:02.393Z,57.94
2018-11-21T04:16:08.533Z,57.91
2018-11-21T04:18:14.570Z,57.88
2018-11-21T04:20:20.588Z,57.89
2018-11-21T04:22:26.640Z,57.84
2018-11-21T04:24:32.677Z,57.81
2018-11-21T04:26:39.184Z,57.78
2018-11-21T04:28:45.232Z,57.74
2018-11-21T04:30:51.547Z,57.74
2018-11-21T04:32:57.567Z,57.73
2018-11-21T04:35:03.903Z,57.76
2018-11-21T04:37:08.399Z,57.78
2018-11-21T04:39:14.848Z,57.78
2018-11-21T04:41:21.173Z,57.79
2018-11-21T04:43:27.549Z,57.78
2018-11-21T04:45:33.599Z,57.75
2018-11-21T04:47:39.642Z,57.75
2018-11-21T04:49:45.711Z,57.76
2018-11-21T04:51:51.759Z,57.77
2018-11-21T04:53:58.060Z,57.78
2018-11-21T04:56:04.149Z,57.78
2018-11-21T04:58:10.241Z,57.83
2018-11-21T05:00:17.631Z,57.88
2018-11-21T05:02:22.192Z,57.94
2018-11-21T05:04:29.026Z,57.96
2018-11-21T05:06:35.101Z,58.00
2018-11-21T05:08:41.265Z,58.03
2018-11-21T05:10:47.416Z,58.02
2018-11-21T05:12:53.523Z,58.06
2018-11-21T05:14:59.538Z,58.11
2018-11-21T05:17:05.968Z,58.15
2018-11-21T05:19:12.040Z,58.12
2018-11-21T05:21:18.452Z,58.05
2018-11-21T05:23:24.520Z,58.00
2018-11-21T05:25:30.626Z,58.04
2018-11-21T05:27:36.732Z,58.10
2018-11-21T05:29:42.822Z,58.14
2018-11-21T05:31:48.907Z,58.18
2018-11-21T05:33:54.975Z,58.25
2018-11-21T05:36:01.227Z,58.28
2018-11-21T05:38:07.668Z,58.25
2018-11-21T05:40:14.043Z,58.25
2018-11-21T05:42:20.345Z,58.26
2018-11-21T05:44:31.239Z,58.26
2018-11-21T05:46:32.521Z,58.25
2018-11-21T05:48:38.671Z,58.19
2018-11-21T05:50:44.712Z,58.17
2018-11-21T05:52:50.777Z,58.17
2018-11-21T05:54:57.165Z,58.20
2018-11-21T05:57:03.343Z,58.26
2018-11-21T05:59:09.406Z,58.29
2018-11-21T06:01:15.490Z,58.30
2018-11-21T06:03:21.691Z,58.28
2018-11-21T06:05:26.221Z,58.24
2018-11-21T06:07:32.365Z,58.16
2018-11-21T06:09:38.590Z,58.13
2018-11-21T06:11:45.280Z,58.08
2018-11-21T06:13:51.393Z,58.03
2018-11-21T06:15:57.644Z,57.99
2018-11-21T06:18:03.717Z,57.91
2018-11-21T06:20:12.972Z,57.92
2018-11-21T06:22:19.053Z,57.93
2018-11-21T06:24:25.144Z,57.91
2018-11-21T06:26:31.192Z,57.89
2018-11-21T06:28:37.924Z,57.91
2018-11-21T06:30:43.969Z,57.97
2018-11-21T06:32:50.035Z,58.08
2018-11-21T06:34:56.075Z,58.15
2018-11-21T06:37:02.155Z,58.25
2018-11-21T06:39:08.769Z,58.33
2018-11-21T06:41:14.849Z,58.33
2018-11-21T06:43:20.975Z,58.30
2018-11-21T06:45:28.388Z,58.27
2018-11-21T06:47:34.541Z,58.29
2018-11-21T06:49:41.280Z,58.35
2018-11-21T06:51:47.535Z,58.40
2018-11-21T06:53:53.617Z,58.41
2018-11-21T06:55:59.876Z,58.42
2018-11-21T06:58:06.469Z,58.43
2018-11-21T07:00:13.206Z,58.46
2018-11-21T07:02:20.000Z,58.43
2018-11-21T07:04:26.069Z,58.46
2018-11-21T07:06:32.245Z,58.51
2018-11-21T07:08:38.390Z,58.55
2018-11-21T07:10:44.461Z,58.61
2018-11-21T07:12:50.507Z,58.62
2018-11-21T07:14:56.566Z,58.68
2018-11-21T07:17:02.814Z,58.75
2018-11-21T07:19:08.905Z,58.76
2018-11-21T07:21:15.227Z,58.82
2018-11-21T07:23:21.319Z,58.84
2018-11-21T07:25:27.462Z,58.91
2018-11-21T07:27:33.582Z,58.95
2018-11-21T07:29:39.770Z,58.96
2018-11-21T07:31:45.858Z,59.03
2018-11-21T07:33:51.921Z,59.03
2018-11-21T07:35:58.072Z,59.08
2018-11-21T07:38:04.162Z,59.09
2018-11-21T07:40:12.532Z,59.13
2018-11-21T07:42:18.774Z,59.14
2018-11-21T07:44:24.876Z,59.14
2018-11-21T07:46:30.919Z,59.16
2018-11-21T07:48:36.958Z,59.20
2018-11-21T07:50:43.087Z,59.23
2018-11-21T07:52:49.227Z,59.26
2018-11-21T07:54:55.293Z,59.31
2018-11-21T07:57:31.350Z,59.34
2018-11-21T07:59:39.975Z,59.37
2018-11-21T08:01:54.776Z,59.36
2018-11-21T08:04:22.127Z,59.43
2018-11-21T08:06:53.470Z,59.44
2018-11-21T08:09:22.479Z,59.45
2018-11-21T08:11:58.359Z,59.42
2018-11-21T08:14:29.221Z,59.42
2018-11-21T08:16:52.813Z,59.38
2018-11-21T08:19:26.869Z,59.39
2018-11-21T08:21:51.905Z,59.41
2018-11-21T08:24:16.165Z,59.45
2018-11-21T08:26:27.372Z,59.47
2018-11-21T08:28:33.439Z,59.45
2018-11-21T08:34:51.565Z,59.40
2018-11-21T08:36:57.692Z,59.42
2018-11-21T08:39:06.089Z,59.45
2018-11-21T08:41:12.179Z,59.40
2018-11-21T08:43:18.447Z,59.45
2018-11-21T08:45:24.492Z,59.44
2018-11-21T08:47:30.629Z,59.44
2018-11-21T08:49:36.781Z,59.45
2018-11-21T08:51:42.903Z,59.46
2018-11-21T08:53:49.078Z,59.47
2018-11-21T08:55:55.132Z,59.52
2018-11-21T08:58:01.484Z,59.51
2018-11-21T09:00:11.340Z,59.48
2018-11-21T09:02:17.508Z,59.42
2018-11-21T09:04:24.261Z,59.40
2018-11-21T09:06:30.360Z,59.36
2018-11-21T09:08:36.497Z,59.35
2018-11-21T09:10:42.614Z,59.34
2018-11-21T09:12:48.661Z,59.29
2018-11-21T09:14:54.751Z,59.25
2018-11-21T09:17:01.128Z,59.18
2018-11-21T09:19:07.194Z,59.11
2018-11-21T09:21:13.259Z,59.10
2018-11-21T09:23:19.319Z,59.11
2018-11-21T09:25:25.447Z,59.10
2018-11-21T09:27:32.325Z,59.06
2018-11-21T09:29:38.419Z,59.00
2018-11-21T09:31:44.867Z,58.97
2018-11-21T09:33:51.065Z,58.95
2018-11-21T09:35:57.126Z,58.95
2018-11-21T09:38:03.205Z,58.94
2018-11-21T09:40:12.205Z,58.86
2018-11-21T09:42:18.502Z,58.82
2018-11-21T09:44:24.581Z,58.75
2018-11-21T09:46:30.705Z,58.82
2018-11-21T09:48:36.870Z,58.79
2018-11-21T09:50:43.076Z,58.73
2018-11-21T09:52:50.419Z,58.68
2018-11-21T09:54:55.196Z,58.63
2018-11-21T09:57:01.301Z,58.63
2018-11-21T09:59:07.368Z,58.62
2018-11-21T10:02:08.418Z,58.58
2018-11-21T10:04:14.505Z,58.56
2018-11-21T10:06:24.411Z,58.49
2018-11-21T10:08:49.569Z,58.59
2018-11-21T10:10:55.591Z,58.56
2018-11-21T10:13:01.655Z,58.60
2018-11-21T10:15:08.870Z,58.60
2018-11-21T10:17:15.013Z,58.54
2018-11-21T10:19:21.135Z,58.45
2018-11-21T10:21:31.997Z,58.45
2018-11-21T10:23:38.247Z,58.52
2018-11-21T10:25:44.237Z,58.46
2018-11-21T10:27:50.516Z,58.39
2018-11-21T10:29:56.792Z,58.34
2018-11-21T10:32:02.868Z,58.36
2018-11-21T10:34:08.927Z,58.32
2018-11-21T10:36:14.971Z,58.28
2018-11-21T10:38:21.062Z,58.20
2018-11-21T10:40:27.147Z,58.11
2018-11-21T10:42:33.240Z,58.08
2018-11-21T10:44:39.481Z,58.07
2018-11-21T10:46:45.579Z,58.07
2018-11-21T10:48:51.680Z,58.04
2018-11-21T10:50:57.856Z,58.02
2018-11-21T10:53:03.966Z,57.95
2018-11-21T10:55:09.748Z,57.94
2018-11-21T10:57:15.805Z,57.95
2018-11-21T10:59:22.867Z,57.94
2018-11-21T11:01:46.790Z,57.90
2018-11-21T11:04:15.536Z,57.86
2018-11-21T11:06:40.453Z,57.76
2018-11-21T11:09:20.512Z,57.69
2018-11-21T11:11:44.091Z,57.61
2018-11-21T11:14:17.483Z,57.70
2018-11-21T11:16:37.172Z,57.69
2018-11-21T11:19:01.095Z,57.69
2018-11-21T11:21:25.372Z,57.67
2018-11-21T11:23:50.709Z,57.61
2018-11-21T11:26:14.663Z,57.57
2018-11-21T11:28:45.733Z,57.50
2018-11-21T11:31:19.845Z,57.51
2018-11-21T11:33:37.509Z,57.58
2018-11-21T11:36:01.126Z,57.59
2018-11-21T11:38:25.118Z,57.62
2018-11-21T11:40:59.146Z,57.63
2018-11-21T11:43:23.006Z,57.63
2018-11-21T11:45:48.118Z,57.67
2018-11-21T11:48:12.163Z,57.69
2018-11-21T11:50:49.442Z,57.65
2018-11-21T11:53:13.225Z,57.58
2018-11-21T11:55:44.189Z,57.57
2018-11-21T11:58:11.027Z,57.54
2018-11-21T12:00:36.283Z,57.55
2018-11-21T12:03:00.003Z,57.48
2018-11-21T12:05:25.382Z,57.41
2018-11-21T12:07:58.203Z,57.33
2018-11-21T12:10:26.077Z,57.27
2018-11-21T12:12:50.918Z,57.28
2018-11-21T12:15:14.970Z,57.38
2018-11-21T12:17:53.347Z,57.38
2018-11-21T12:20:08.469Z,57.31
2018-11-21T12:22:36.374Z,57.30
2018-11-21T12:25:19.808Z,57.32
2018-11-21T12:27:38.289Z,57.34
2018-11-21T12:30:12.719Z,57.39
2018-11-21T12:32:39.257Z,57.50
2018-11-21T12:35:00.498Z,57.54
2018-11-21T12:37:44.067Z,57.54
2018-11-21T12:40:15.272Z,57.49
2018-11-21T12:42:40.364Z,57.47
2018-11-21T12:45:04.632Z,57.42
2018-11-21T12:47:33.903Z,57.44
2018-11-21T12:49:58.979Z,57.50
2018-11-21T12:52:27.744Z,57.59
2018-11-21T12:54:56.478Z,57.64
2018-11-21T12:57:19.377Z,57.62
2018-11-21T12:59:43.393Z,57.62
2018-11-21T13:02:17.460Z,57.59
2018-11-21T13:04:54.607Z,57.56
2018-11-21T13:07:21.829Z,57.58
2018-11-21T13:09:38.961Z,57.58
2018-11-21T13:12:07.309Z,57.57
2018-11-21T13:14:32.429Z,57.60
2018-11-21T13:17:03.657Z,57.57
2018-11-21T13:19:43.971Z,57.62
2018-11-21T13:22:12.082Z,57.55
2018-11-21T13:24:43.229Z,57.44
2018-11-21T13:27:01.859Z,57.39
2018-11-21T13:29:31.847Z,57.32
2018-11-21T13:31:55.679Z,57.26
2018-11-21T13:34:20.782Z,57.25
2018-11-21T13:37:00.864Z,57.25
2018-11-21T13:39:37.647Z,57.24
2018-11-21T13:42:01.267Z,57.21
2018-11-21T13:44:25.123Z,57.16
2018-11-21T13:46:48.996Z,57.12
2018-11-21T13:49:04.481Z,57.03
2018-11-21T13:51:24.062Z,56.98
2018-11-21T13:53:49.125Z,56.99
2018-11-21T13:55:55.336Z,56.99
2018-11-21T13:58:01.418Z,56.96
2018-11-21T14:00:11.481Z,56.96
2018-11-21T14:02:17.843Z,56.92
2018-11-21T14:04:23.914Z,56.89
2018-11-21T14:06:30.183Z,56.89
2018-11-21T14:08:36.450Z,56.89
2018-11-21T14:10:43.446Z,56.91
2018-11-21T14:12:49.569Z,56.90
2018-11-21T14:14:55.636Z,56.88
2018-11-21T14:17:02.013Z,56.84
2018-11-21T14:19:08.344Z,56.86
2018-11-21T14:21:14.395Z,56.88
2018-11-21T14:23:20.542Z,56.91
2018-11-21T14:25:26.790Z,56.89
2018-11-21T14:27:32.880Z,56.93
2018-11-21T14:29:38.995Z,57.01
2018-11-21T14:31:45.472Z,57.04
2018-11-21T14:33:51.677Z,57.08
2018-11-21T14:35:58.150Z,57.08
2018-11-21T14:38:04.275Z,57.07
2018-11-21T14:40:14.169Z,57.06
2018-11-21T14:42:20.341Z,57.06
2018-11-21T14:44:26.491Z,57.10
2018-11-21T14:46:32.641Z,57.12
2018-11-21T14:48:39.529Z,57.17
2018-11-21T14:50:45.646Z,57.15
2018-11-21T14:52:52.011Z,57.16
2018-11-21T14:54:58.417Z,57.15
2018-11-21T14:57:04.679Z,57.11
2018-11-21T14:59:10.824Z,57.10
2018-11-21T15:01:17.166Z,57.11
2018-11-21T15:03:23.289Z,57.10
2018-11-21T15:05:29.437Z,57.07
2018-11-21T15:07:35.668Z,57.09
2018-11-21T15:09:41.904Z,57.07
2018-11-21T15:11:48.685Z,57.06
2018-11-21T15:13:54.802Z,57.09
2018-11-21T15:16:00.954Z,57.05
2018-11-21T15:18:07.068Z,57.04
2018-11-21T15:20:15.575Z,56.99
2018-11-21T15:22:21.705Z,57.01
2018-11-21T15:24:27.795Z,57.02
2018-11-21T15:26:33.999Z,56.99
2018-11-21T15:28:40.197Z,56.97
2018-11-21T15:30:46.280Z,56.96
2018-11-21T15:32:52.473Z,56.94
2018-11-21T15:34:58.568Z,56.94
2018-11-21T15:37:05.153Z,56.92
2018-11-21T15:39:12.119Z,56.91
2018-11-21T15:41:18.272Z,56.90
2018-11-21T15:43:24.486Z,56.90
2018-11-21T15:45:30.581Z,56.93
2018-11-21T15:47:36.907Z,56.91
2018-11-21T15:49:43.100Z,56.91
2018-11-21T15:51:49.301Z,56.90
2018-11-21T15:53:55.425Z,56.88
2018-11-21T15:56:01.567Z,56.90
2018-11-21T15:58:07.714Z,56.89
2018-11-21T16:00:20.508Z,56.93
2018-11-21T16:02:26.768Z,56.90
2018-11-21T16:04:33.009Z,56.88
2018-11-21T16:06:39.099Z,56.87
2018-11-21T16:08:45.288Z,56.85
2018-11-21T16:10:51.375Z,56.85
2018-11-21T16:12:56.931Z,56.89
2018-11-21T16:15:01.397Z,56.89
2018-11-21T16:17:07.776Z,56.88
2018-11-21T16:19:14.093Z,56.89
2018-11-21T16:21:20.415Z,56.93
2018-11-21T16:23:26.719Z,56.97
2018-11-21T16:25:32.871Z,56.98
2018-11-21T16:27:39.966Z,56.98
2018-11-21T16:29:46.099Z,57.01
2018-11-21T16:31:52.232Z,57.03
2018-11-21T16:33:58.462Z,57.02
2018-11-21T16:36:04.563Z,57.01
2018-11-21T16:38:10.848Z,56.99
2018-11-21T16:40:18.699Z,56.99
2018-11-21T16:42:24.950Z,56.99
2018-11-21T16:44:31.123Z,56.97
2018-11-21T16:46:37.391Z,56.96
2018-11-21T16:48:43.559Z,56.92
2018-11-21T16:50:50.227Z,56.92
2018-11-21T16:52:56.426Z,56.92
2018-11-21T16:55:02.701Z,56.92
2018-11-21T16:57:08.946Z,56.93
2018-11-21T16:59:15.608Z,56.92
2018-11-21T17:01:21.828Z,56.94
2018-11-21T17:03:28.047Z,57.00
2018-11-21T17:05:34.286Z,57.05
2018-11-21T17:07:40.876Z,57.13
2018-11-21T17:09:47.034Z,57.17
2018-11-21T17:11:53.245Z,57.21
2018-11-21T17:13:59.474Z,57.24
2018-11-21T17:16:06.414Z,57.26
2018-11-21T17:18:13.435Z,57.21
2018-11-21T17:20:30.965Z,57.15
2018-11-21T17:22:37.980Z,57.11
2018-11-21T17:24:45.440Z,57.01
2018-11-21T17:26:51.556Z,56.93
2018-11-21T17:28:57.699Z,56.90
2018-11-21T17:31:04.096Z,56.92
2018-11-21T17:33:10.935Z,56.92
2018-11-21T17:35:17.889Z,56.93
2018-11-21T17:37:24.047Z,56.91
2018-11-21T17:39:30.585Z,56.94
2018-11-21T17:41:36.917Z,56.93
2018-11-21T17:43:43.045Z,56.98
2018-11-21T17:45:49.438Z,57.01
2018-11-21T17:47:55.687Z,57.03
2018-11-21T17:50:02.253Z,57.01
2018-11-21T17:52:08.353Z,57.00
2018-11-21T17:54:14.638Z,56.98
2018-11-21T17:56:20.879Z,56.97
2018-11-21T17:58:26.966Z,57.03
2018-11-21T18:00:33.434Z,57.05
2018-11-21T18:02:39.607Z,57.06
2018-11-21T18:04:45.743Z,57.10
2018-11-21T18:06:52.360Z,57.08
2018-11-21T18:09:01.436Z,57.06
2018-11-21T18:11:07.718Z,57.06
2018-11-21T18:13:14.524Z,57.04
2018-11-21T18:15:21.106Z,57.01
2018-11-21T18:17:27.371Z,57.00
2018-11-21T18:19:31.986Z,57.03
2018-11-21T18:21:38.425Z,57.06
2018-11-21T18:23:44.952Z,57.07
2018-11-21T18:25:51.216Z,57.11
2018-11-21T18:27:57.765Z,57.13
2018-11-21T18:30:04.651Z,57.13
2018-11-21T18:32:11.031Z,57.09
2018-11-21T18:34:17.275Z,57.07
2018-11-21T18:36:23.462Z,57.01
2018-11-21T18:38:29.667Z,56.95
2018-11-21T18:40:35.888Z,56.94
2018-11-21T18:42:42.973Z,56.90
2018-11-21T18:44:49.133Z,56.85
2018-11-21T18:46:55.464Z,56.88
2018-11-21T18:49:02.174Z,56.95
2018-11-21T18:51:08.390Z,57.01
2018-11-21T18:53:14.837Z,57.03
2018-11-21T18:55:27.031Z,57.00
2018-11-21T18:58:16.292Z,56.98
2018-11-21T19:00:27.091Z,56.91
2018-11-21T19:02:33.405Z,56.84
2018-11-21T19:04:39.516Z,56.81
2018-11-21T19:06:45.652Z,56.78
2018-11-21T19:08:51.778Z,56.79
2018-11-21T19:10:58.226Z,56.82
2018-11-21T19:13:04.368Z,56.80
2018-11-21T19:15:13.650Z,56.84
2018-11-21T19:17:20.362Z,56.84
2018-11-21T19:19:26.503Z,56.86
2018-11-21T19:21:31.044Z,56.88
2018-11-21T19:23:37.259Z,56.93
2018-11-21T19:25:43.523Z,56.95
2018-11-21T19:27:49.793Z,56.98
2018-11-21T19:29:55.936Z,57.00
2018-11-21T19:32:02.219Z,56.97
2018-11-21T19:34:11.993Z,56.96
2018-11-21T19:36:19.294Z,56.94
2018-11-21T19:38:27.089Z,56.96
2018-11-21T19:40:33.560Z,56.97
2018-11-21T19:42:40.457Z,56.96
2018-11-21T19:44:46.960Z,56.91
2018-11-21T19:46:53.214Z,56.83
2018-11-21T19:48:59.934Z,56.72
2018-11-21T19:51:07.609Z,56.66
2018-11-21T19:53:13.814Z,56.60
2018-11-21T19:55:21.807Z,56.56
2018-11-21T19:57:28.078Z,56.48
2018-11-21T19:59:34.903Z,56.44
2018-11-21T20:01:41.817Z,56.41
2018-11-21T20:03:48.425Z,56.38
2018-11-21T20:05:55.182Z,56.35
2018-11-21T20:08:02.073Z,56.32
2018-11-21T20:10:09.642Z,56.33
2018-11-21T20:12:16.548Z,56.32
2018-11-21T20:14:22.955Z,56.30
2018-11-21T20:16:29.114Z,56.25
2018-11-21T20:18:35.468Z,56.23
2018-11-21T20:20:41.663Z,56.21
2018-11-21T20:22:49.196Z,56.21
2018-11-21T20:24:55.752Z,56.19
2018-11-21T20:27:02.004Z,56.19
2018-11-21T20:29:08.632Z,56.21
2018-11-21T20:31:15.207Z,56.21
2018-11-21T20:33:21.418Z,56.17
2018-11-21T20:35:27.593Z,56.20
2018-11-21T20:37:34.021Z,56.21
2018-11-21T20:39:46.560Z,56.21
2018-11-21T20:41:46.552Z,56.20
2018-11-21T20:43:53.133Z,56.13
2018-11-21T20:45:59.330Z,56.10
2018-11-21T20:48:05.801Z,56.06
2018-11-21T20:50:12.163Z,56.01
2018-11-21T20:52:18.333Z,55.99
2018-11-21T20:54:24.689Z,56.03
2018-11-21T20:56:30.996Z,56.02
2018-11-21T20:58:37.297Z,56.02
2018-11-21T21:00:43.463Z,55.99
2018-11-21T21:02:50.097Z,55.98
2018-11-21T21:04:56.360Z,55.97
2018-11-21T21:07:02.512Z,55.98
2018-11-21T21:09:13.358Z,55.98
2018-11-21T21:11:19.744Z,55.98
2018-11-21T21:13:25.959Z,55.99
2018-11-21T21:15:32.096Z,55.97
2018-11-21T21:17:38.595Z,55.94
2018-11-21T21:19:44.696Z,55.94
2018-11-21T21:21:51.259Z,55.95
2018-11-21T21:23:58.272Z,55.96
2018-11-21T21:26:04.628Z,55.95
2018-11-21T21:28:10.803Z,55.92
2018-11-21T21:30:22.513Z,55.90
2018-11-21T21:32:28.684Z,55.91
2018-11-21T21:34:34.808Z,55.98
2018-11-21T21:36:41.022Z,55.98
2018-11-21T21:38:47.498Z,55.94
2018-11-21T21:40:53.761Z,55.95
2018-11-21T21:42:59.837Z,55.97
2018-11-21T21:45:07.918Z,55.97
2018-11-21T21:47:14.062Z,55.99
2018-11-21T21:49:20.233Z,55.99
2018-11-21T21:51:26.544Z,55.99
2018-11-21T21:53:32.619Z,55.99
2018-11-21T21:55:38.732Z,56.00
2018-11-21T21:57:44.862Z,56.02
2018-11-21T21:59:51.389Z,56.07
2018-11-21T22:01:57.521Z,56.12
2018-11-21T22:04:03.851Z,56.15
2018-11-21T22:06:10.127Z,56.18
2018-11-21T22:08:16.375Z,56.18
2018-11-21T22:10:22.849Z,56.21
2018-11-21T22:12:28.973Z,56.21
2018-11-21T22:14:35.111Z,56.21
2018-11-21T22:16:41.747Z,56.22
2018-11-21T22:18:48.010Z,56.21
2018-11-21T22:20:54.070Z,56.17
2018-11-21T22:23:00.223Z,56.16
2018-11-21T22:25:04.876Z,56.15
2018-11-21T22:27:10.983Z,56.18
2018-11-21T22:29:17.194Z,56.20
2018-11-21T22:31:23.422Z,56.22
2018-11-21T22:33:29.534Z,56.25
2018-11-21T22:35:37.627Z,56.26
2018-11-21T22:37:44.296Z,56.25
2018-11-21T22:39:50.222Z,56.28
2018-11-21T22:41:56.324Z,56.23
2018-11-21T22:44:02.447Z,56.23
2018-11-21T22:46:08.585Z,56.26
2018-11-21T22:48:15.014Z,56.25
2018-11-21T22:50:22.300Z,56.23
2018-11-21T22:52:29.137Z,56.22
2018-11-21T22:54:35.214Z,56.17
2018-11-21T22:56:41.323Z,56.17
2018-11-21T22:58:47.847Z,56.16
2018-11-21T23:00:54.327Z,56.15
2018-11-21T23:03:00.688Z,56.14
2018-11-21T23:05:08.811Z,56.09
2018-11-21T23:07:14.885Z,56.10
2018-11-21T23:09:20.990Z,56.12
2018-11-21T23:11:27.092Z,56.11
2018-11-21T23:13:33.221Z,56.09
2018-11-21T23:15:39.862Z,56.04
2018-11-21T23:17:45.930Z,56.00
2018-11-21T23:19:52.464Z,56.00
2018-11-21T23:21:58.754Z,56.02
2018-11-21T23:24:04.883Z,56.05
2018-11-21T23:26:11.577Z,56.07
2018-11-21T23:28:17.647Z,56.12
2018-11-21T23:30:25.039Z,56.13
2018-11-21T23:32:31.454Z,56.12
2018-11-21T23:34:37.898Z,56.14
2018-11-21T23:36:44.296Z,56.12
2018-11-21T23:38:50.361Z,56.09
2018-11-21T23:40:56.447Z,56.06
2018-11-21T23:43:02.968Z,56.08
2018-11-21T23:45:11.097Z,56.08
2018-11-21T23:47:17.209Z,56.05
2018-11-21T23:49:23.506Z,56.04
2018-11-21T23:51:29.558Z,56.03
2018-11-21T23:53:36.025Z,56.05
2018-11-21T23:55:42.423Z,56.02
2018-11-21T23:57:48.513Z,56.00
2018-11-21T23:59:54.754Z,55.99
